createdAt,value
2019-02-10T00:03:06.755Z,99823.96
2019-02-10T00:06:24.982Z,99826.00
2019-02-10T00:09:32.197Z,99824.58
2019-02-10T00:12:39.319Z,99821.78
2019-02-10T00:15:46.546Z,99818.78
2019-02-10T00:18:53.738Z,99814.20
2019-02-10T00:22:00.924Z,99816.54
2019-02-10T00:25:08.154Z,99807.08
2019-02-10T00:28:15.390Z,99813.23
2019-02-10T00:31:22.581Z,99819.31
2019-02-10T00:34:29.704Z,99804.14
2019-02-10T00:37:36.954Z,99807.91
2019-02-10T00:40:44.281Z,99809.92
2019-02-10T00:43:51.576Z,99804.23
2019-02-10T00:46:58.708Z,99806.47
2019-02-10T00:50:05.995Z,99801.06
2019-02-10T00:53:22.765Z,99801.20
2019-02-10T00:56:29.957Z,99807.59
2019-02-10T00:59:37.080Z,99803.92
2019-02-10T01:02:44.318Z,99809.53
2019-02-10T01:05:51.438Z,99791.97
2019-02-10T01:08:58.664Z,99796.16
2019-02-10T01:12:05.878Z,99799.01
2019-02-10T01:15:13.009Z,99790.41
2019-02-10T01:18:20.250Z,99787.91
2019-02-10T01:21:27.459Z,99788.72
2019-02-10T01:24:34.658Z,99788.86
2019-02-10T01:27:41.794Z,99780.31
2019-02-10T01:30:48.982Z,99781.52
2019-02-10T01:33:56.216Z,99776.95
2019-02-10T01:37:03.331Z,99780.56
2019-02-10T01:40:10.971Z,99770.72
2019-02-10T01:43:27.439Z,99774.24
2019-02-10T01:46:34.934Z,99758.45
2019-02-10T01:49:51.410Z,99763.21
2019-02-10T01:52:58.525Z,99753.06
2019-02-10T01:56:05.730Z,99755.75
2019-02-10T01:59:12.945Z,99744.20
2019-02-10T02:02:20.141Z,99741.86
2019-02-10T02:05:27.291Z,99745.31
2019-02-10T02:08:34.573Z,99742.31
2019-02-10T02:11:42.181Z,99724.82
2019-02-10T02:14:58.595Z,99717.47
2019-02-10T02:18:05.896Z,99714.24
2019-02-10T02:21:22.534Z,99709.83
2019-02-10T02:24:29.729Z,99696.46
2019-02-10T02:27:37.251Z,99695.63
2019-02-10T02:30:53.790Z,99696.33
2019-02-10T02:34:10.483Z,99685.20
2019-02-10T02:37:17.733Z,99690.66
2019-02-10T02:40:24.853Z,99691.28
2019-02-10T02:43:32.077Z,99688.95
2019-02-10T02:46:39.676Z,99675.45
2019-02-10T02:49:56.153Z,99676.41
2019-02-10T02:53:12.795Z,99662.47
2019-02-10T02:56:20.017Z,99660.73
2019-02-10T02:59:27.055Z,99659.09
2019-02-10T03:02:34.177Z,99661.72
2019-02-10T03:05:40.237Z,99657.97
2019-02-10T03:08:47.335Z,99651.67
2019-02-10T03:11:55.037Z,99646.11
2019-02-10T03:15:02.162Z,99638.30
2019-02-10T03:18:09.385Z,99624.71
2019-02-10T03:21:16.625Z,99634.04
2019-02-10T03:24:23.847Z,99629.08
2019-02-10T03:27:31.089Z,99629.07
2019-02-10T03:30:38.303Z,99614.67
2019-02-10T03:33:45.420Z,99612.86
2019-02-10T03:36:52.648Z,99612.72
2019-02-10T03:39:59.842Z,99604.55
2019-02-10T03:43:06.968Z,99608.83
2019-02-10T03:46:14.183Z,99603.03
2019-02-10T03:49:21.476Z,99596.75
2019-02-10T03:52:28.603Z,99589.53
2019-02-10T03:55:36.181Z,99587.43
2019-02-10T03:58:43.440Z,99580.02
2019-02-10T04:01:50.883Z,99579.94
2019-02-10T04:04:58.086Z,99574.02
2019-02-10T04:08:05.282Z,99571.54
2019-02-10T04:11:13.681Z,99565.85
2019-02-10T04:14:20.992Z,99559.61
2019-02-10T04:17:28.095Z,99556.91
2019-02-10T04:20:35.247Z,99554.36
2019-02-10T04:23:42.365Z,99555.11
2019-02-10T04:26:49.594Z,99545.59
2019-02-10T04:29:56.814Z,99538.47
2019-02-10T04:33:04.228Z,99537.20
2019-02-10T04:36:11.453Z,99531.94
2019-02-10T04:39:18.676Z,99523.41
2019-02-10T04:42:25.903Z,99522.11
2019-02-10T04:45:33.131Z,99504.55
2019-02-10T04:48:40.661Z,99501.42
2019-02-10T04:51:47.666Z,99500.43
2019-02-10T04:54:54.920Z,99487.75
2019-02-10T04:58:02.607Z,99486.70
2019-02-10T05:01:19.268Z,99479.28
2019-02-10T05:04:26.386Z,99479.78
2019-02-10T05:07:33.686Z,99470.81
2019-02-10T05:10:40.911Z,99457.88
2019-02-10T05:13:51.007Z,99456.38
2019-02-10T05:17:12.332Z,99440.77
2019-02-10T05:20:19.455Z,99438.30
2019-02-10T05:23:26.743Z,99427.57
2019-02-10T05:26:34.025Z,99422.81
2019-02-10T05:29:50.695Z,99423.27
2019-02-10T05:32:57.881Z,99421.63
2019-02-10T05:36:05.237Z,99415.16
2019-02-10T05:39:23.932Z,99405.41
2019-02-10T05:42:31.053Z,99409.20
2019-02-10T05:45:38.460Z,99401.95
2019-02-10T05:48:55.083Z,99397.67
2019-02-10T05:52:02.317Z,99380.92
2019-02-10T05:55:09.525Z,99383.02
2019-02-10T05:58:16.649Z,99379.53
2019-02-10T06:02:02.051Z,99369.81
2019-02-10T06:05:21.085Z,99370.46
2019-02-10T06:08:37.395Z,99359.55
2019-02-10T06:11:44.525Z,99358.51
2019-02-10T06:14:51.669Z,99350.17
2019-02-10T06:17:58.886Z,99346.13
2019-02-10T06:21:06.056Z,99335.95
2019-02-10T06:24:13.275Z,99329.66
2019-02-10T06:27:20.409Z,99320.48
2019-02-10T06:30:27.903Z,99322.80
2019-02-10T06:33:35.025Z,99316.17
2019-02-10T06:36:42.244Z,99305.80
2019-02-10T06:39:49.434Z,99304.08
2019-02-10T06:42:56.550Z,99289.64
2019-02-10T06:46:03.780Z,99285.00
2019-02-10T06:49:11.383Z,99279.08
2019-02-10T06:52:27.766Z,99270.71
2019-02-10T06:55:34.989Z,99267.02
2019-02-10T06:58:42.298Z,99270.92
2019-02-10T07:01:54.081Z,99267.38
2019-02-10T07:05:01.234Z,99264.05
2019-02-10T07:08:08.396Z,99257.67
2019-02-10T07:11:15.517Z,99254.25
2019-02-10T07:14:29.292Z,99254.34
2019-02-10T07:18:12.810Z,99244.61
2019-02-10T07:21:19.949Z,99235.25
2019-02-10T07:24:36.491Z,99230.34
2019-02-10T07:27:43.722Z,99226.47
2019-02-10T07:30:51.511Z,99226.91
2019-02-10T07:34:48.638Z,99221.80
2019-02-10T07:38:06.393Z,99211.02
2019-02-10T07:41:56.317Z,99200.00
2019-02-10T07:45:40.839Z,99192.08
2019-02-10T07:49:08.602Z,99186.13
2019-02-10T07:52:45.498Z,99183.80
2019-02-10T07:56:48.684Z,99168.97
2019-02-10T08:00:10.828Z,99170.50
2019-02-10T08:03:46.612Z,99147.89
2019-02-10T08:07:10.684Z,99142.30
2019-02-10T08:10:45.645Z,99137.22
2019-02-10T08:14:32.031Z,99128.64
2019-02-10T08:18:04.816Z,99121.48
2019-02-10T08:21:57.283Z,99105.33
2019-02-10T08:25:37.270Z,99101.66
2019-02-10T08:29:10.921Z,99091.46
2019-02-10T08:33:01.671Z,99075.89
2019-02-10T08:36:52.556Z,99058.34
2019-02-10T08:40:38.476Z,99056.38
2019-02-10T08:44:36.235Z,99056.65
2019-02-10T08:48:08.098Z,99047.09
2019-02-10T08:51:55.779Z,99025.63
2019-02-10T08:55:02.919Z,99012.95
2019-02-10T08:58:10.078Z,99007.85
2019-02-10T09:01:17.600Z,98995.70
2019-02-10T09:04:34.253Z,98985.50
2019-02-10T09:07:51.084Z,98975.31
2019-02-10T09:11:07.670Z,98961.06
2019-02-10T09:14:14.933Z,98955.02
2019-02-10T09:17:22.047Z,98941.56
2019-02-10T09:20:29.242Z,98930.19
2019-02-10T09:23:36.521Z,98917.54
2019-02-10T09:26:53.246Z,98903.73
2019-02-10T09:30:11.230Z,98891.70
2019-02-10T09:33:18.341Z,98881.97
2019-02-10T09:36:25.517Z,98877.06
2019-02-10T09:39:32.678Z,98875.84
2019-02-10T09:42:40.003Z,98864.75
2019-02-10T09:45:47.120Z,98846.93
2019-02-10T09:48:54.342Z,98824.52
2019-02-10T09:52:01.368Z,98816.28
2019-02-10T09:55:08.940Z,98807.65
2019-02-10T09:58:16.064Z,98786.55
2019-02-10T10:01:23.177Z,98772.70
2019-02-10T10:04:30.399Z,98763.88
2019-02-10T10:07:37.621Z,98748.40
2019-02-10T10:10:44.764Z,98740.03
2019-02-10T10:13:51.881Z,98732.39
2019-02-10T10:16:59.010Z,98729.94
2019-02-10T10:20:07.927Z,98718.90
2019-02-10T10:23:14.950Z,98702.73
2019-02-10T10:26:22.198Z,98695.65
2019-02-10T10:29:29.312Z,98690.16
2019-02-10T10:32:36.531Z,98683.17
2019-02-10T10:35:43.734Z,98678.34
2019-02-10T10:38:50.952Z,98681.08
2019-02-10T10:41:58.118Z,98669.98
2019-02-10T10:45:05.550Z,98658.88
2019-02-10T10:48:12.852Z,98644.70
2019-02-10T10:51:20.046Z,98631.41
2019-02-10T10:54:27.265Z,98616.40
2019-02-10T10:57:32.899Z,98603.39
2019-02-10T11:00:40.177Z,98594.12
2019-02-10T11:03:47.478Z,98586.68
2019-02-10T11:06:54.962Z,98575.58
2019-02-10T11:10:11.956Z,98555.54
2019-02-10T11:13:28.331Z,98542.37
2019-02-10T11:16:35.456Z,98536.28
2019-02-10T11:19:42.714Z,98528.94
2019-02-10T11:22:49.897Z,98513.66
2019-02-10T11:25:57.198Z,98493.70
2019-02-10T11:29:04.321Z,98483.09
2019-02-10T11:32:11.543Z,98481.81
2019-02-10T11:35:18.765Z,98468.98
2019-02-10T11:38:35.486Z,98447.73
2019-02-10T11:41:42.713Z,98441.09
2019-02-10T11:44:49.835Z,98434.89
2019-02-10T11:47:56.993Z,98425.20
2019-02-10T11:51:04.299Z,98417.34
2019-02-10T11:54:11.491Z,98403.30
2019-02-10T11:57:18.611Z,98407.51
2019-02-10T12:00:25.810Z,98400.28
2019-02-10T12:03:32.926Z,98405.98
2019-02-10T12:06:40.416Z,98392.70
2019-02-10T12:09:51.654Z,98387.59
2019-02-10T12:12:56.344Z,98378.30
2019-02-10T12:16:03.443Z,98361.14
2019-02-10T12:19:10.566Z,98354.75
2019-02-10T12:22:17.674Z,98335.86
2019-02-10T12:25:25.135Z,98330.32
2019-02-10T12:28:32.757Z,98313.77
2019-02-10T12:31:49.055Z,98311.05
2019-02-10T12:34:56.278Z,98304.41
2019-02-10T12:38:03.722Z,98290.05
2019-02-10T12:41:20.281Z,98271.80
2019-02-10T12:44:27.490Z,98266.92
2019-02-10T12:47:34.614Z,98264.46
2019-02-10T12:50:41.918Z,98245.39
2019-02-10T12:53:49.067Z,98239.72
2019-02-10T12:56:56.196Z,98237.59
2019-02-10T13:00:03.538Z,98224.78
2019-02-10T13:03:10.732Z,98220.89
2019-02-10T13:06:27.371Z,98208.63
2019-02-10T13:09:34.857Z,98206.77
2019-02-10T13:12:51.409Z,98191.47
2019-02-10T13:15:59.610Z,98187.99
2019-02-10T13:19:06.832Z,98187.23
2019-02-10T13:22:13.946Z,98183.06
2019-02-10T13:25:21.950Z,98174.33
2019-02-10T13:28:29.168Z,98157.64
2019-02-10T13:31:36.713Z,98162.28
2019-02-10T13:34:44.238Z,98156.02
2019-02-10T13:37:51.363Z,98145.32
2019-02-10T13:40:58.491Z,98128.75
2019-02-10T13:44:06.659Z,98125.13
2019-02-10T13:47:13.883Z,98117.97
2019-02-10T13:50:21.023Z,98115.05
2019-02-10T13:53:27.117Z,98112.73
2019-02-10T13:56:43.648Z,98108.00
2019-02-10T13:59:50.041Z,98110.55
2019-02-10T14:02:57.155Z,98111.74
2019-02-10T14:06:04.256Z,98114.31
2019-02-10T14:09:11.361Z,98104.69
2019-02-10T14:12:18.476Z,98095.31
2019-02-10T14:15:25.613Z,98082.45
2019-02-10T14:18:32.733Z,98085.36
2019-02-10T14:21:48.975Z,98077.22
2019-02-10T14:24:56.197Z,98070.52
2019-02-10T14:28:03.388Z,98075.25
2019-02-10T14:31:20.417Z,98068.53
2019-02-10T14:34:36.876Z,98063.88
2019-02-10T14:37:44.166Z,98067.95
2019-02-10T14:41:00.883Z,98070.13
2019-02-10T14:44:17.610Z,98068.84
2019-02-10T14:47:24.949Z,98067.59
2019-02-10T14:50:32.170Z,98060.78
2019-02-10T14:53:48.787Z,98053.91
2019-02-10T14:56:55.903Z,98059.98
2019-02-10T15:00:03.165Z,98055.65
2019-02-10T15:03:10.389Z,98056.61
2019-02-10T15:06:17.617Z,98053.56
2019-02-10T15:09:24.784Z,98056.97
2019-02-10T15:12:32.009Z,98058.03
2019-02-10T15:15:39.236Z,98058.67
2019-02-10T15:18:46.429Z,98053.09
2019-02-10T15:21:53.589Z,98053.38
2019-02-10T15:25:00.887Z,98044.17
2019-02-10T15:28:18.143Z,98045.11
2019-02-10T15:31:40.964Z,98042.66
2019-02-10T15:34:57.347Z,98037.61
2019-02-10T15:38:04.703Z,98032.05
2019-02-10T15:41:11.829Z,98034.34
2019-02-10T15:44:19.251Z,98032.31
2019-02-10T15:47:35.715Z,98034.31
2019-02-10T15:50:43.037Z,98035.27
2019-02-10T15:53:59.958Z,98035.19
2019-02-10T15:57:16.528Z,98037.65
2019-02-10T16:00:25.069Z,98039.31
2019-02-10T16:03:32.294Z,98041.55
2019-02-10T16:06:39.420Z,98038.98
2019-02-10T16:09:46.778Z,98024.40
2019-02-10T16:12:53.907Z,98025.08
2019-02-10T16:16:01.110Z,98028.36
2019-02-10T16:19:08.326Z,98030.53
2019-02-10T16:22:15.610Z,98020.48
2019-02-10T16:25:22.793Z,98012.44
2019-02-10T16:28:30.090Z,98021.73
2019-02-10T16:31:37.459Z,98026.16
2019-02-10T16:34:54.093Z,98013.16
2019-02-10T16:38:11.271Z,98017.38
2019-02-10T16:41:27.591Z,98016.06
2019-02-10T16:44:34.719Z,98015.34
2019-02-10T16:47:41.946Z,98013.55
2019-02-10T16:50:49.058Z,98017.98
2019-02-10T16:53:56.635Z,98011.53
2019-02-10T16:57:13.213Z,98008.49
2019-02-10T17:00:20.333Z,98004.48
2019-02-10T17:03:29.224Z,98011.41
2019-02-10T17:06:36.399Z,98022.91
2019-02-10T17:09:43.521Z,98026.33
2019-02-10T17:12:50.978Z,98030.16
2019-02-10T17:16:07.639Z,98018.86
2019-02-10T17:19:14.996Z,98029.95
2019-02-10T17:22:31.606Z,98028.55
2019-02-10T17:25:48.255Z,98017.05
2019-02-10T17:28:55.421Z,98018.30
2019-02-10T17:32:02.631Z,98029.63
2019-02-10T17:35:09.961Z,98023.02
2019-02-10T17:38:17.114Z,98021.79
2019-02-10T17:41:39.505Z,98025.03
2019-02-10T17:44:47.056Z,98031.97
2019-02-10T17:47:54.323Z,98038.28
2019-02-10T17:51:01.497Z,98037.00
2019-02-10T17:54:08.693Z,98033.67
2019-02-10T17:57:16.302Z,98046.58
2019-02-10T18:00:26.127Z,98047.11
2019-02-10T18:03:33.515Z,98044.84
2019-02-10T18:06:40.674Z,98038.14
2019-02-10T18:09:47.890Z,98033.97
2019-02-10T18:12:55.338Z,98039.55
2019-02-10T18:16:16.516Z,98040.58
2019-02-10T18:19:51.817Z,98042.69
2019-02-10T18:23:44.421Z,98039.11
2019-02-10T18:27:29.104Z,98039.13
2019-02-10T18:31:06.983Z,98042.25
2019-02-10T18:34:52.919Z,98033.56
2019-02-10T18:38:13.564Z,98054.55
2019-02-10T18:41:43.055Z,98042.98
2019-02-10T18:45:24.428Z,98045.27
2019-02-10T18:48:49.404Z,98046.10
2019-02-10T18:52:05.956Z,98057.37
2019-02-10T18:55:47.879Z,98052.36
2019-02-10T18:59:20.137Z,98059.81
2019-02-10T19:02:41.265Z,98063.75
2019-02-10T19:05:55.375Z,98064.34
2019-02-10T19:09:30.745Z,98065.97
2019-02-10T19:13:02.662Z,98058.78
2019-02-10T19:16:44.599Z,98063.30
2019-02-10T19:20:02.530Z,98071.64
2019-02-10T19:23:46.159Z,98064.36
2019-02-10T19:27:18.207Z,98079.79
2019-02-10T19:30:43.201Z,98077.80
2019-02-10T19:34:15.156Z,98083.83
2019-02-10T19:37:48.572Z,98085.09
2019-02-10T19:41:23.742Z,98096.00
2019-02-10T19:44:50.034Z,98100.88
2019-02-10T19:48:07.674Z,98102.47
2019-02-10T19:51:36.394Z,98111.39
2019-02-10T19:55:01.522Z,98112.78
2019-02-10T19:58:34.243Z,98120.55
2019-02-10T20:02:16.410Z,98145.44
2019-02-10T20:05:59.253Z,98149.14
2019-02-10T20:09:28.144Z,98166.53
2019-02-10T20:13:07.412Z,98179.31
2019-02-10T20:16:22.189Z,98197.09
2019-02-10T20:20:04.218Z,98198.95
2019-02-10T20:23:30.614Z,98211.84
2019-02-10T20:26:54.754Z,98239.38
2019-02-10T20:30:30.504Z,98249.01
2019-02-10T20:33:59.465Z,98261.88
2019-02-10T20:37:50.237Z,98275.23
2019-02-10T20:41:19.286Z,98295.30
2019-02-10T20:45:01.052Z,98303.43
2019-02-10T20:48:30.234Z,98326.30
2019-02-10T20:51:48.271Z,98337.93
2019-02-10T20:55:23.943Z,98351.55
2019-02-10T20:58:57.126Z,98368.55
2019-02-10T21:02:21.606Z,98381.20
2019-02-10T21:05:56.862Z,98392.28
2019-02-10T21:09:36.109Z,98410.99
2019-02-10T21:12:51.580Z,98432.55
2019-02-10T21:16:02.938Z,98449.78
2019-02-10T21:19:38.267Z,98456.22
2019-02-10T21:23:13.378Z,98482.72
2019-02-10T21:26:38.284Z,98492.61
2019-02-10T21:30:04.407Z,98506.38
2019-02-10T21:33:26.737Z,98521.41
2019-02-10T21:36:46.510Z,98530.58
2019-02-10T21:40:09.086Z,98548.53
2019-02-10T21:43:35.289Z,98564.74
2019-02-10T21:46:53.364Z,98582.56
2019-02-10T21:50:24.369Z,98586.31
2019-02-10T21:53:31.687Z,98603.89
2019-02-10T21:56:38.813Z,98608.23
2019-02-10T21:59:45.948Z,98629.16
2019-02-10T22:02:53.066Z,98639.21
2019-02-10T22:06:00.199Z,98645.64
2019-02-10T22:09:07.807Z,98642.47
2019-02-10T22:12:24.363Z,98645.83
2019-02-10T22:15:31.678Z,98663.28
2019-02-10T22:18:38.991Z,98671.35
2019-02-10T22:21:55.806Z,98678.88
2019-02-10T22:25:12.357Z,98690.33
2019-02-10T22:28:29.106Z,98697.64
2019-02-10T22:31:36.425Z,98710.94
2019-02-10T22:34:53.058Z,98717.12
2019-02-10T22:38:00.269Z,98731.89
2019-02-10T22:41:07.389Z,98731.97
2019-02-10T22:44:14.508Z,98744.28
2019-02-10T22:47:21.650Z,98752.92
2019-02-10T22:50:28.784Z,98761.59
2019-02-10T22:53:36.029Z,98769.33
2019-02-10T22:56:43.163Z,98789.78
2019-02-10T22:59:50.589Z,98790.69
2019-02-10T23:02:57.819Z,98800.30
2019-02-10T23:06:05.193Z,98813.27
2019-02-10T23:09:19.439Z,98818.80
2019-02-10T23:12:26.574Z,98839.11
2019-02-10T23:15:33.799Z,98843.41
2019-02-10T23:18:41.001Z,98848.94
2019-02-10T23:21:48.122Z,98860.12
2019-02-10T23:24:55.911Z,98876.16
2019-02-10T23:28:03.163Z,98888.78
2019-02-10T23:31:10.408Z,98897.78
2019-02-10T23:34:17.495Z,98911.83
2019-02-10T23:37:24.606Z,98923.00
2019-02-10T23:40:31.727Z,98935.25
2019-02-10T23:43:38.871Z,98946.44
2019-02-10T23:46:46.096Z,98957.41
2019-02-10T23:49:53.534Z,98964.37
2019-02-10T23:53:00.753Z,98963.31
2019-02-10T23:56:07.890Z,98979.46
2019-02-10T23:59:15.034Z,98992.98
